createdAt,value
2023-01-13T00:00:00.508Z,0.8
2023-01-13T00:05:00.569Z,3.5
2023-01-13T00:10:00.471Z,1.1
2023-01-13T00:15:00.519Z,2.4
2023-01-13T00:20:00.452Z,2.5
2023-01-13T00:25:00.504Z,1.1
2023-01-13T00:30:00.516Z,0.6
2023-01-13T00:35:00.493Z,1.1
2023-01-13T00:40:00.507Z,0.4
2023-01-13T00:45:00.502Z,1.0
2023-01-13T00:50:00.497Z,0.5
2023-01-13T00:55:00.487Z,0.5
2023-01-13T01:00:00.501Z,0.4
2023-01-13T01:05:00.502Z,0.6
2023-01-13T01:10:00.475Z,0.6
2023-01-13T01:15:00.487Z,0.7
2023-01-13T01:20:00.480Z,1.0
2023-01-13T01:25:00.495Z,0.7
2023-01-13T01:30:00.508Z,1.2
2023-01-13T01:35:00.522Z,0.9
2023-01-13T01:40:00.471Z,0.5
2023-01-13T01:45:00.485Z,1.5
2023-01-13T01:50:00.487Z,1.1
2023-01-13T01:55:00.517Z,1.6
2023-01-13T02:00:00.459Z,1.2
2023-01-13T02:05:00.503Z,2.2
2023-01-13T02:10:00.487Z,0.8
2023-01-13T02:15:00.476Z,1.5
2023-01-13T02:20:00.491Z,0.9
2023-01-13T02:25:00.512Z,1.2
2023-01-13T02:30:00.482Z,1.2
2023-01-13T02:35:00.499Z,2.5
2023-01-13T02:40:00.507Z,2.4
2023-01-13T02:45:00.464Z,1.9
2023-01-13T02:50:00.487Z,0.9
2023-01-13T02:55:00.483Z,1.6
2023-01-13T03:00:00.484Z,1.9
2023-01-13T03:05:00.460Z,1.8
2023-01-13T03:10:00.482Z,1.5
2023-01-13T03:15:00.468Z,1.3
2023-01-13T03:20:00.494Z,1.7
2023-01-13T03:25:00.461Z,1.2
2023-01-13T03:30:00.444Z,1.2
2023-01-13T03:35:00.498Z,2.7
2023-01-13T03:40:00.462Z,2.7
2023-01-13T03:45:00.463Z,2.2
2023-01-13T03:50:00.433Z,3.1
2023-01-13T03:55:00.467Z,3.0
2023-01-13T04:00:00.449Z,2.6
2023-01-13T04:05:00.470Z,1.9
2023-01-13T04:10:02.020Z,3.0
2023-01-13T04:15:00.497Z,2.3
2023-01-13T04:20:00.429Z,2.4
2023-01-13T04:25:00.491Z,2.2
2023-01-13T04:30:00.434Z,2.7
2023-01-13T04:35:00.458Z,2.5
2023-01-13T04:40:00.454Z,2.4
2023-01-13T04:45:00.467Z,2.5
2023-01-13T04:50:00.430Z,2.4
2023-01-13T04:55:00.473Z,3.3
2023-01-13T05:00:00.454Z,3.6
2023-01-13T05:05:00.539Z,3.2
2023-01-13T05:10:00.460Z,2.4
2023-01-13T05:15:00.428Z,3.6
2023-01-13T05:20:00.487Z,3.4
2023-01-13T05:25:00.482Z,3.2
2023-01-13T05:30:00.485Z,3.7
2023-01-13T05:35:00.465Z,3.6
2023-01-13T05:40:00.464Z,3.3
2023-01-13T05:45:00.473Z,3.9
2023-01-13T05:50:00.436Z,3.3
2023-01-13T05:55:00.468Z,2.7
2023-01-13T06:00:00.481Z,2.6
2023-01-13T06:05:00.491Z,3.7
2023-01-13T06:10:00.449Z,2.6
2023-01-13T06:15:00.501Z,3.1
2023-01-13T06:20:00.483Z,3.8
2023-01-13T06:25:00.471Z,3.6
2023-01-13T06:30:00.461Z,2.9
2023-01-13T06:35:00.500Z,2.9
2023-01-13T06:40:00.447Z,3.9
2023-01-13T06:45:00.495Z,3.8
2023-01-13T06:50:00.441Z,4.3
2023-01-13T06:55:00.479Z,4.1
2023-01-13T07:00:00.466Z,4.0
2023-01-13T07:05:00.487Z,4.2
2023-01-13T07:10:00.469Z,3.2
2023-01-13T07:15:00.467Z,3.6
2023-01-13T07:20:00.474Z,4.4
2023-01-13T07:25:00.479Z,4.4
2023-01-13T07:30:00.450Z,4.0
2023-01-13T07:35:00.528Z,2.8
2023-01-13T07:40:00.445Z,2.9
2023-01-13T07:45:00.494Z,3.8
2023-01-13T07:50:00.489Z,3.7
2023-01-13T07:55:00.489Z,4.7
2023-01-13T08:00:00.443Z,3.0
2023-01-13T08:05:00.491Z,4.5
2023-01-13T08:10:00.487Z,5.6
2023-01-13T08:15:00.466Z,4.2
2023-01-13T08:20:00.491Z,3.6
2023-01-13T08:25:00.629Z,2.7
2023-01-13T08:30:00.467Z,2.5
2023-01-13T08:35:00.476Z,3.1
2023-01-13T08:40:00.506Z,2.8
2023-01-13T08:45:00.476Z,4.3
2023-01-13T08:50:00.477Z,3.3
2023-01-13T08:55:00.451Z,4.1
2023-01-13T09:00:00.526Z,2.6
2023-01-13T09:05:00.486Z,3.4
2023-01-13T09:10:00.466Z,3.3
2023-01-13T09:15:00.473Z,2.8
2023-01-13T09:20:00.483Z,3.0
2023-01-13T09:25:00.497Z,3.0
2023-01-13T09:30:00.449Z,2.7
2023-01-13T09:35:00.549Z,2.6
2023-01-13T09:40:00.491Z,2.7
2023-01-13T09:45:00.498Z,3.0
2023-01-13T09:50:00.447Z,2.5
2023-01-13T09:55:00.478Z,1.3
2023-01-13T10:00:00.505Z,1.8
2023-01-13T10:05:00.614Z,1.5
2023-01-13T10:10:00.490Z,2.7
2023-01-13T10:15:00.466Z,1.7
2023-01-13T10:20:00.475Z,1.6
2023-01-13T10:25:00.510Z,1.6
2023-01-13T10:30:00.468Z,4.1
2023-01-13T10:35:00.486Z,2.4
2023-01-13T10:40:00.454Z,2.0
2023-01-13T10:45:00.494Z,2.0
2023-01-13T10:50:00.456Z,2.0
2023-01-13T10:55:00.476Z,1.6
2023-01-13T11:00:00.488Z,1.6
2023-01-13T11:05:00.610Z,2.0
2023-01-13T11:10:00.439Z,1.5
2023-01-13T11:15:00.494Z,1.7
2023-01-13T11:20:00.483Z,1.7
2023-01-13T11:25:00.468Z,1.8
2023-01-13T11:30:00.441Z,1.9
2023-01-13T11:35:00.500Z,1.3
2023-01-13T11:40:00.453Z,2.0
2023-01-13T11:45:00.499Z,1.6
2023-01-13T11:50:00.469Z,1.4
2023-01-13T11:55:00.536Z,2.1
2023-01-13T12:00:00.464Z,1.8
2023-01-13T12:05:00.467Z,1.6
2023-01-13T12:10:00.484Z,1.9
2023-01-13T12:15:00.483Z,1.1
2023-01-13T12:20:00.503Z,1.1
2023-01-13T12:25:00.440Z,1.8
2023-01-13T12:30:00.482Z,1.5
2023-01-13T12:35:00.475Z,1.3
2023-01-13T12:40:02.023Z,1.6
2023-01-13T12:45:00.511Z,2.5
2023-01-13T12:50:00.447Z,1.9
2023-01-13T12:55:00.500Z,2.9
2023-01-13T13:00:00.463Z,3.1
2023-01-13T13:05:00.504Z,2.3
2023-01-13T13:10:00.500Z,1.8
2023-01-13T13:15:02.991Z,1.4
2023-01-13T13:20:00.493Z,1.9
2023-01-13T13:25:00.477Z,1.9
2023-01-13T13:30:00.497Z,2.4
2023-01-13T13:35:00.452Z,1.5
2023-01-13T13:40:00.563Z,1.4
2023-01-13T13:45:00.425Z,1.5
2023-01-13T13:50:00.499Z,1.7
2023-01-13T13:55:00.463Z,2.0
2023-01-13T14:00:00.482Z,2.1
2023-01-13T14:05:00.471Z,2.9
2023-01-13T14:10:00.467Z,2.1
2023-01-13T14:15:00.389Z,2.6
2023-01-13T14:20:00.445Z,2.3
2023-01-13T14:25:00.452Z,1.7
2023-01-13T14:30:00.487Z,1.9
2023-01-13T14:35:00.389Z,2.1
2023-01-13T14:40:00.424Z,3.0
2023-01-13T14:45:00.380Z,1.9
2023-01-13T14:50:00.399Z,1.2
2023-01-13T14:55:00.410Z,1.6
2023-01-13T15:00:00.458Z,2.0
2023-01-13T15:05:00.396Z,1.9
2023-01-13T15:10:00.399Z,2.8
2023-01-13T15:15:00.364Z,2.3
2023-01-13T15:20:00.377Z,3.3
2023-01-13T15:25:00.443Z,1.3
2023-01-13T15:30:00.361Z,1.2
2023-01-13T15:35:00.550Z,0.6
2023-01-13T15:40:00.423Z,0.5
2023-01-13T15:45:00.392Z,0.9
2023-01-13T15:50:00.387Z,0.7
2023-01-13T15:55:00.456Z,0.8
2023-01-13T16:00:00.357Z,1.0
2023-01-13T16:05:00.584Z,1.2
2023-01-13T16:10:00.393Z,1.0
2023-01-13T16:15:00.418Z,1.2
2023-01-13T16:20:00.389Z,1.5
2023-01-13T16:25:00.442Z,2.7
2023-01-13T16:30:00.396Z,2.0
2023-01-13T16:35:00.451Z,1.7
2023-01-13T16:40:00.486Z,1.2
2023-01-13T16:45:00.470Z,1.5
2023-01-13T16:50:00.494Z,1.7
2023-01-13T16:55:00.468Z,1.6
2023-01-13T17:00:00.539Z,0.9
2023-01-13T17:05:00.463Z,1.0
2023-01-13T17:10:00.485Z,1.1
2023-01-13T17:15:00.474Z,1.7
2023-01-13T17:20:00.518Z,1.1
2023-01-13T17:25:00.488Z,1.1
2023-01-13T17:30:00.448Z,1.4
2023-01-13T17:35:00.469Z,2.3
2023-01-13T17:40:00.518Z,1.2
2023-01-13T17:45:00.486Z,2.3
2023-01-13T17:50:00.445Z,1.2
2023-01-13T17:55:00.539Z,3.1
2023-01-13T18:00:00.441Z,1.2
2023-01-13T18:05:00.487Z,1.2
2023-01-13T18:10:00.475Z,0.7
2023-01-13T18:15:00.456Z,0.9
2023-01-13T18:20:00.502Z,0.7
2023-01-13T18:25:00.482Z,0.7
2023-01-13T18:30:00.490Z,0.7
2023-01-13T18:35:05.743Z,1.5
2023-01-13T18:40:00.469Z,0.9
2023-01-13T18:45:00.486Z,0.8
2023-01-13T18:50:00.460Z,1.0
2023-01-13T18:55:00.465Z,0.6
2023-01-13T19:00:00.479Z,1.1
2023-01-13T19:05:00.488Z,1.0
2023-01-13T19:10:00.452Z,0.8
2023-01-13T19:15:00.494Z,0.9
2023-01-13T19:20:00.449Z,0.9
2023-01-13T19:25:00.475Z,1.0
2023-01-13T19:30:01.090Z,1.3
2023-01-13T19:35:00.516Z,1.4
2023-01-13T19:40:00.426Z,1.5
2023-01-13T19:45:00.464Z,1.9
2023-01-13T19:50:00.437Z,1.7
2023-01-13T19:55:00.646Z,0.7
2023-01-13T20:00:00.505Z,1.0
2023-01-13T20:05:00.471Z,1.8
2023-01-13T20:10:00.425Z,1.6
2023-01-13T20:15:00.460Z,1.6
2023-01-13T20:20:00.453Z,0.9
2023-01-13T20:25:00.476Z,1.2
2023-01-13T20:30:00.442Z,1.0
2023-01-13T20:35:00.457Z,0.4
2023-01-13T20:40:00.427Z,0.5
2023-01-13T20:45:00.458Z,1.2
2023-01-13T20:50:00.485Z,1.1
2023-01-13T20:55:00.467Z,0.7
2023-01-13T21:00:00.503Z,0.6
2023-01-13T21:05:00.458Z,1.5
2023-01-13T21:10:00.488Z,1.3
2023-01-13T21:15:00.428Z,0.6
2023-01-13T21:20:00.472Z,0.7
2023-01-13T21:25:00.462Z,0.5
2023-01-13T21:30:00.538Z,0.5
2023-01-13T21:35:00.438Z,0.7
2023-01-13T21:40:00.514Z,0.7
2023-01-13T21:45:00.480Z,1.2
2023-01-13T21:50:00.501Z,0.9
2023-01-13T21:55:00.455Z,1.3
2023-01-13T22:00:00.735Z,0.8
2023-01-13T22:05:00.479Z,0.7
2023-01-13T22:10:00.443Z,0.9
2023-01-13T22:15:00.644Z,0.9
2023-01-13T22:20:00.438Z,0.9
2023-01-13T22:25:00.483Z,1.1
2023-01-13T22:30:00.499Z,1.0
2023-01-13T22:35:00.476Z,1.0
2023-01-13T22:40:00.435Z,1.0
2023-01-13T22:45:00.629Z,1.2
2023-01-13T22:50:00.449Z,1.2
2023-01-13T22:55:00.482Z,1.9
2023-01-13T23:00:00.477Z,1.3
2023-01-13T23:05:03.000Z,2.5
2023-01-13T23:10:00.447Z,0.8
2023-01-13T23:15:00.470Z,1.3
2023-01-13T23:20:00.474Z,1.1
2023-01-13T23:25:00.489Z,1.0
2023-01-13T23:30:00.430Z,1.9
2023-01-13T23:35:00.482Z,0.9
2023-01-13T23:40:00.498Z,1.7
2023-01-13T23:45:00.429Z,1.4
2023-01-13T23:50:00.476Z,2.3
2023-01-13T23:55:00.453Z,3.0
